createdAt,value
2019-05-18T00:01:38.896Z,100537.38
2019-05-18T00:04:10.760Z,100519.92
2019-05-18T00:06:42.628Z,100523.57
2019-05-18T00:09:14.510Z,100523.57
2019-05-18T00:11:46.396Z,100526.98
2019-05-18T00:14:18.278Z,100520.05
2019-05-18T00:16:50.175Z,100517.33
2019-05-18T00:19:22.077Z,100517.23
2019-05-18T00:21:53.944Z,100517.39
2019-05-18T00:24:26.018Z,100513.09
2019-05-18T00:26:57.899Z,100513.09
2019-05-18T00:29:29.828Z,100516.79
2019-05-18T00:32:01.725Z,100508.48
2019-05-18T00:34:33.690Z,100513.33
2019-05-18T00:37:06.082Z,100515.61
2019-05-18T00:39:38.250Z,100519.03
2019-05-18T00:42:10.069Z,100526.95
2019-05-18T00:44:41.928Z,100525.25
2019-05-18T00:47:13.795Z,100531.64
2019-05-18T00:49:46.694Z,100532.27
2019-05-18T00:52:18.572Z,100532.13
2019-05-18T00:54:50.444Z,100534.61
2019-05-18T00:57:22.327Z,100538.22
2019-05-18T00:59:54.222Z,100526.27
2019-05-18T01:02:26.118Z,100529.57
2019-05-18T01:04:58.017Z,100522.73
2019-05-18T01:07:29.923Z,100522.16
2019-05-18T01:10:01.807Z,100521.38
2019-05-18T01:12:34.609Z,100522.67
2019-05-18T01:15:07.059Z,100522.67
2019-05-18T01:17:38.979Z,100524.95
2019-05-18T01:20:11.095Z,100524.95
2019-05-18T01:22:42.913Z,100513.25
2019-05-18T01:25:14.799Z,100515.86
2019-05-18T01:27:46.797Z,100516.13
2019-05-18T01:30:19.662Z,100516.40
2019-05-18T01:32:51.508Z,100515.05
2019-05-18T01:35:23.439Z,100512.86
2019-05-18T01:37:55.388Z,100510.09
2019-05-18T01:40:27.202Z,100506.47
2019-05-18T01:42:59.254Z,100507.30
2019-05-18T01:45:31.145Z,100513.48
2019-05-18T01:48:13.375Z,100507.94
2019-05-18T01:50:36.619Z,100509.28
2019-05-18T01:53:08.455Z,100512.86
2019-05-18T01:55:40.362Z,100514.59
2019-05-18T01:58:12.237Z,100509.16
2019-05-18T02:00:44.120Z,100511.69
2019-05-18T02:03:16.042Z,100513.84
2019-05-18T02:05:47.867Z,100509.16
2019-05-18T02:08:19.752Z,100505.11
2019-05-18T02:10:51.638Z,100497.13
2019-05-18T02:13:24.510Z,100495.30
2019-05-18T02:15:56.322Z,100487.92
2019-05-18T02:18:29.433Z,100484.86
2019-05-18T02:21:01.347Z,100485.97
2019-05-18T02:23:33.225Z,100489.54
2019-05-18T02:26:05.286Z,100484.50
2019-05-18T02:28:37.089Z,100478.38
2019-05-18T02:31:08.997Z,100478.38
2019-05-18T02:33:40.809Z,100476.30
2019-05-18T02:36:12.703Z,100475.95
2019-05-18T02:38:44.508Z,100477.56
2019-05-18T02:41:16.369Z,100478.56
2019-05-18T02:43:48.238Z,100480.63
2019-05-18T02:46:20.143Z,100476.21
2019-05-18T02:48:52.879Z,100481.49
2019-05-18T02:51:24.698Z,100467.73
2019-05-18T02:53:56.511Z,100475.22
2019-05-18T02:56:28.341Z,100463.44
2019-05-18T02:59:00.217Z,100462.95
2019-05-18T03:01:32.488Z,100460.37
2019-05-18T03:04:04.378Z,100465.98
2019-05-18T03:06:36.576Z,100452.12
2019-05-18T03:09:08.674Z,100452.33
2019-05-18T03:11:40.500Z,100457.94
2019-05-18T03:14:12.461Z,100453.89
2019-05-18T03:16:44.389Z,100464.99
2019-05-18T03:19:16.278Z,100450.44
2019-05-18T03:21:48.161Z,100452.25
2019-05-18T03:24:20.132Z,100444.72
2019-05-18T03:26:52.020Z,100442.58
2019-05-18T03:29:23.898Z,100447.86
2019-05-18T03:31:55.810Z,100447.86
2019-05-18T03:34:27.598Z,100453.33
2019-05-18T03:36:59.421Z,100447.56
2019-05-18T03:39:31.248Z,100450.89
2019-05-18T03:42:03.143Z,100448.55
2019-05-18T03:44:35.311Z,100450.20
2019-05-18T03:47:07.202Z,100450.20
2019-05-18T03:49:39.102Z,100446.45
2019-05-18T03:52:11.895Z,100440.50
2019-05-18T03:54:43.785Z,100434.31
2019-05-18T03:57:15.613Z,100437.37
2019-05-18T03:59:47.499Z,100428.07
2019-05-18T04:02:19.310Z,100430.34
2019-05-18T04:04:51.183Z,100424.46
2019-05-18T04:07:23.059Z,100430.52
2019-05-18T04:09:54.944Z,100430.52
2019-05-18T04:12:26.833Z,100433.57
2019-05-18T04:14:59.698Z,100437.91
2019-05-18T04:17:31.779Z,100437.91
2019-05-18T04:20:03.786Z,100441.48
2019-05-18T04:22:35.942Z,100443.20
2019-05-18T04:25:08.346Z,100443.20
2019-05-18T04:27:40.141Z,100443.52
2019-05-18T04:30:12.013Z,100437.11
2019-05-18T04:32:44.000Z,100437.11
2019-05-18T04:35:15.895Z,100439.53
2019-05-18T04:37:47.872Z,100445.95
2019-05-18T04:40:19.804Z,100438.33
2019-05-18T04:42:51.687Z,100441.81
2019-05-18T04:45:23.685Z,100438.19
2019-05-18T04:47:55.492Z,100434.20
2019-05-18T04:50:27.309Z,100437.30
2019-05-18T04:52:59.187Z,100430.95
2019-05-18T04:55:31.611Z,100429.91
2019-05-18T04:58:03.483Z,100434.80
2019-05-18T05:00:35.363Z,100431.29
2019-05-18T05:03:07.346Z,100447.95
2019-05-18T05:05:39.501Z,100443.89
2019-05-18T05:08:11.584Z,100440.83
2019-05-18T05:10:43.394Z,100443.76
2019-05-18T05:13:15.369Z,100442.59
2019-05-18T05:15:47.257Z,100442.59
2019-05-18T05:18:19.209Z,100449.14
2019-05-18T05:20:51.016Z,100452.75
2019-05-18T05:23:22.921Z,100449.98
2019-05-18T05:25:54.734Z,100454.48
2019-05-18T05:28:26.612Z,100454.91
2019-05-18T05:30:58.417Z,100453.16
2019-05-18T05:33:30.258Z,100446.14
2019-05-18T05:36:02.074Z,100449.62
2019-05-18T05:38:33.948Z,100448.05
2019-05-18T05:41:05.833Z,100452.53
2019-05-18T05:43:37.879Z,100448.78
2019-05-18T05:46:09.678Z,100446.64
2019-05-18T05:48:41.556Z,100443.52
2019-05-18T05:51:13.367Z,100449.05
2019-05-18T05:53:45.167Z,100445.39
2019-05-18T05:56:17.169Z,100445.97
2019-05-18T05:58:48.965Z,100443.66
2019-05-18T06:01:20.777Z,100438.86
2019-05-18T06:03:52.674Z,100431.13
2019-05-18T06:06:24.571Z,100432.05
2019-05-18T06:08:56.395Z,100440.75
2019-05-18T06:11:28.275Z,100440.84
2019-05-18T06:14:01.146Z,100439.35
2019-05-18T06:16:33.023Z,100435.36
2019-05-18T06:19:04.895Z,100439.33
2019-05-18T06:21:36.772Z,100436.38
2019-05-18T06:24:08.829Z,100443.86
2019-05-18T06:26:40.705Z,100442.36
2019-05-18T06:29:12.553Z,100444.41
2019-05-18T06:31:44.443Z,100446.67
2019-05-18T06:34:16.284Z,100446.73
2019-05-18T06:36:48.120Z,100450.87
2019-05-18T06:39:19.925Z,100445.47
2019-05-18T06:41:51.802Z,100447.40
2019-05-18T06:44:23.666Z,100442.02
2019-05-18T06:46:55.551Z,100445.64
2019-05-18T06:49:27.436Z,100445.08
2019-05-18T06:51:59.299Z,100436.28
2019-05-18T06:54:31.415Z,100436.82
2019-05-18T06:57:03.582Z,100432.58
2019-05-18T06:59:37.016Z,100430.72
2019-05-18T07:02:08.841Z,100436.71
2019-05-18T07:04:40.723Z,100430.08
2019-05-18T07:07:12.609Z,100438.25
2019-05-18T07:09:44.496Z,100434.52
2019-05-18T07:12:16.312Z,100436.54
2019-05-18T07:14:48.189Z,100432.12
2019-05-18T07:17:20.074Z,100432.66
2019-05-18T07:19:52.363Z,100439.79
2019-05-18T07:22:24.247Z,100438.96
2019-05-18T07:24:56.134Z,100440.14
2019-05-18T07:27:27.933Z,100431.98
2019-05-18T07:29:59.821Z,100434.70
2019-05-18T07:32:31.731Z,100441.33
2019-05-18T07:35:03.560Z,100432.85
2019-05-18T07:37:35.456Z,100431.45
2019-05-18T07:40:07.789Z,100433.50
2019-05-18T07:42:39.673Z,100425.50
2019-05-18T07:45:13.161Z,100419.86
2019-05-18T07:47:45.306Z,100419.66
2019-05-18T07:50:17.272Z,100418.78
2019-05-18T07:52:49.097Z,100414.14
2019-05-18T07:55:21.899Z,100409.53
2019-05-18T07:57:54.794Z,100408.30
2019-05-18T08:00:26.682Z,100403.84
2019-05-18T08:02:58.556Z,100405.83
2019-05-18T08:05:30.358Z,100401.52
2019-05-18T08:08:02.270Z,100403.34
2019-05-18T08:10:38.296Z,100393.22
2019-05-18T08:13:10.193Z,100395.82
2019-05-18T08:15:42.624Z,100398.62
2019-05-18T08:18:14.505Z,100404.64
2019-05-18T08:20:46.800Z,100403.71
2019-05-18T08:23:18.687Z,100405.48
2019-05-18T08:25:50.560Z,100407.16
2019-05-18T08:28:22.367Z,100400.21
2019-05-18T08:30:54.169Z,100398.23
2019-05-18T08:33:26.373Z,100395.85
2019-05-18T08:35:58.265Z,100394.24
2019-05-18T08:38:30.223Z,100391.69
2019-05-18T08:41:02.116Z,100391.87
2019-05-18T08:43:34.025Z,100385.78
2019-05-18T08:46:05.869Z,100384.14
2019-05-18T08:48:37.903Z,100381.88
2019-05-18T08:51:09.805Z,100381.45
2019-05-18T08:53:41.682Z,100383.60
2019-05-18T08:56:13.485Z,100380.17
2019-05-18T08:58:45.291Z,100382.09
2019-05-18T09:01:17.122Z,100381.95
2019-05-18T09:03:49.044Z,100379.98
2019-05-18T09:06:20.921Z,100382.47
2019-05-18T09:08:52.887Z,100379.48
2019-05-18T09:11:24.760Z,100378.91
2019-05-18T09:13:56.574Z,100377.94
2019-05-18T09:16:28.394Z,100375.55
2019-05-18T09:19:00.277Z,100376.36
2019-05-18T09:21:32.076Z,100373.26
2019-05-18T09:24:03.962Z,100371.37
2019-05-18T09:26:35.937Z,100366.59
2019-05-18T09:29:07.872Z,100367.13
2019-05-18T09:31:39.955Z,100366.41
2019-05-18T09:34:11.772Z,100365.77
2019-05-18T09:36:43.590Z,100365.34
2019-05-18T09:39:15.402Z,100366.80
2019-05-18T09:41:47.269Z,100359.69
2019-05-18T09:44:19.139Z,100354.75
2019-05-18T09:46:50.936Z,100357.53
2019-05-18T09:49:22.811Z,100355.73
2019-05-18T09:51:54.679Z,100351.40
2019-05-18T09:54:26.495Z,100357.08
2019-05-18T09:56:58.364Z,100358.96
2019-05-18T09:59:30.556Z,100356.30
2019-05-18T10:02:02.417Z,100358.22
2019-05-18T10:04:34.303Z,100343.86
2019-05-18T10:07:07.612Z,100357.77
2019-05-18T10:09:39.915Z,100357.98
2019-05-18T10:12:11.854Z,100354.28
2019-05-18T10:14:43.725Z,100347.02
2019-05-18T10:17:15.605Z,100346.28
2019-05-18T10:19:47.492Z,100345.08
2019-05-18T10:22:19.353Z,100339.39
2019-05-18T10:24:51.244Z,100341.00
2019-05-18T10:27:23.143Z,100340.77
2019-05-18T10:29:55.032Z,100334.26
2019-05-18T10:32:26.885Z,100329.25
2019-05-18T10:34:58.828Z,100336.84
2019-05-18T10:37:30.909Z,100325.00
2019-05-18T10:40:02.846Z,100331.84
2019-05-18T10:42:34.892Z,100326.80
2019-05-18T10:45:07.036Z,100316.00
2019-05-18T10:47:39.467Z,100329.24
2019-05-18T10:50:11.650Z,100325.63
2019-05-18T10:52:43.515Z,100320.93
2019-05-18T10:55:15.493Z,100323.70
2019-05-18T10:57:47.365Z,100325.61
2019-05-18T11:00:19.557Z,100315.73
2019-05-18T11:02:51.438Z,100313.47
2019-05-18T11:05:23.324Z,100309.61
2019-05-18T11:07:55.190Z,100311.67
2019-05-18T11:10:27.082Z,100305.69
2019-05-18T11:12:58.960Z,100301.85
2019-05-18T11:15:30.773Z,100304.53
2019-05-18T11:18:02.646Z,100301.64
2019-05-18T11:20:34.523Z,100303.80
2019-05-18T11:23:07.383Z,100298.72
2019-05-18T11:25:39.232Z,100296.15
2019-05-18T11:28:11.111Z,100299.67
2019-05-18T11:30:42.919Z,100310.71
2019-05-18T11:33:14.815Z,100308.11
2019-05-18T11:35:46.713Z,100308.89
2019-05-18T11:38:18.641Z,100307.51
2019-05-18T11:40:50.527Z,100300.72
2019-05-18T11:43:22.403Z,100307.34
2019-05-18T11:45:54.215Z,100293.15
2019-05-18T11:48:26.105Z,100301.07
2019-05-18T11:50:57.909Z,100298.31
2019-05-18T11:53:29.785Z,100286.37
2019-05-18T11:56:01.589Z,100291.89
2019-05-18T11:58:33.455Z,100282.55
2019-05-18T12:01:05.364Z,100284.38
2019-05-18T12:03:37.225Z,100289.56
2019-05-18T12:06:09.094Z,100280.42
2019-05-18T12:08:40.976Z,100281.73
2019-05-18T12:11:12.834Z,100282.97
2019-05-18T12:13:44.680Z,100278.83
2019-05-18T12:16:17.547Z,100282.04
2019-05-18T12:18:49.527Z,100293.26
2019-05-18T12:21:21.384Z,100283.56
2019-05-18T12:23:53.253Z,100282.52
2019-05-18T12:26:25.044Z,100278.83
2019-05-18T12:28:56.912Z,100275.03
2019-05-18T12:31:28.776Z,100274.16
2019-05-18T12:34:00.646Z,100276.78
2019-05-18T12:36:32.546Z,100275.77
2019-05-18T12:39:05.763Z,100277.91
2019-05-18T12:41:37.813Z,100276.98
2019-05-18T12:44:09.700Z,100264.80
2019-05-18T12:46:41.585Z,100267.16
2019-05-18T12:49:13.624Z,100276.23
2019-05-18T12:51:45.483Z,100265.41
2019-05-18T12:54:28.838Z,100268.84
2019-05-18T12:56:50.997Z,100262.97
2019-05-18T12:59:22.890Z,100263.76
2019-05-18T13:01:54.763Z,100265.05
2019-05-18T13:04:27.631Z,100259.78
2019-05-18T13:06:59.488Z,100258.62
2019-05-18T13:09:31.263Z,100256.33
2019-05-18T13:12:03.277Z,100251.05
2019-05-18T13:14:35.403Z,100254.30
2019-05-18T13:17:07.229Z,100249.12
2019-05-18T13:19:39.025Z,100242.98
2019-05-18T13:22:10.917Z,100245.45
2019-05-18T13:24:45.318Z,100239.89
2019-05-18T13:27:16.248Z,100239.45
2019-05-18T13:29:48.030Z,100247.02
2019-05-18T13:32:19.885Z,100240.23
2019-05-18T13:34:51.669Z,100235.06
2019-05-18T13:37:23.515Z,100235.49
2019-05-18T13:39:55.371Z,100232.12
2019-05-18T13:42:28.234Z,100229.91
2019-05-18T13:45:00.009Z,100229.30
2019-05-18T13:47:31.862Z,100236.26
2019-05-18T13:50:03.732Z,100222.34
2019-05-18T13:52:35.602Z,100229.30
2019-05-18T13:55:10.037Z,100228.41
2019-05-18T13:57:41.876Z,100224.35
2019-05-18T14:00:15.065Z,100222.47
2019-05-18T14:02:50.051Z,100225.95
2019-05-18T14:05:21.906Z,100231.52
2019-05-18T14:07:53.715Z,100234.14
2019-05-18T14:10:25.592Z,100237.95
2019-05-18T14:12:57.451Z,100229.77
2019-05-18T14:15:29.324Z,100223.92
2019-05-18T14:18:01.193Z,100229.73
2019-05-18T14:20:33.068Z,100226.09
2019-05-18T14:23:04.966Z,100223.53
2019-05-18T14:25:36.809Z,100227.77
2019-05-18T14:28:08.649Z,100222.34
2019-05-18T14:30:41.517Z,100218.83
2019-05-18T14:33:13.377Z,100219.98
2019-05-18T14:35:45.237Z,100218.91
2019-05-18T14:38:17.122Z,100218.61
2019-05-18T14:40:48.905Z,100219.26
2019-05-18T14:43:20.757Z,100225.65
2019-05-18T14:45:52.547Z,100219.87
2019-05-18T14:48:24.422Z,100217.28
2019-05-18T14:50:56.282Z,100220.82
2019-05-18T14:53:28.154Z,100224.00
2019-05-18T14:56:00.027Z,100222.41
2019-05-18T14:58:31.888Z,100221.84
2019-05-18T15:01:03.702Z,100219.91
2019-05-18T15:03:35.571Z,100207.55
2019-05-18T15:06:07.444Z,100211.59
2019-05-18T15:08:39.398Z,100208.62
2019-05-18T15:11:11.289Z,100211.72
2019-05-18T15:13:43.156Z,100213.13
2019-05-18T15:16:15.023Z,100219.19
2019-05-18T15:18:46.886Z,100218.41
2019-05-18T15:21:18.853Z,100215.73
2019-05-18T15:23:50.764Z,100199.86
2019-05-18T15:26:22.719Z,100205.18
2019-05-18T15:28:54.500Z,100213.59
2019-05-18T15:31:26.365Z,100213.36
2019-05-18T15:33:58.225Z,100212.52
2019-05-18T15:36:30.084Z,100215.63
2019-05-18T15:39:01.980Z,100213.03
2019-05-18T15:41:35.398Z,100210.16
2019-05-18T15:44:07.250Z,100205.85
2019-05-18T15:46:39.107Z,100199.28
2019-05-18T15:49:10.991Z,100195.94
2019-05-18T15:51:42.846Z,100190.20
2019-05-18T15:54:14.705Z,100195.73
2019-05-18T15:56:46.568Z,100192.27
2019-05-18T15:59:18.443Z,100200.01
2019-05-18T16:01:50.289Z,100193.27
2019-05-18T16:04:22.156Z,100189.84
2019-05-18T16:06:54.111Z,100190.08
2019-05-18T16:09:26.009Z,100182.25
2019-05-18T16:11:57.895Z,100179.42
2019-05-18T16:14:29.760Z,100183.18
2019-05-18T16:17:01.628Z,100175.33
2019-05-18T16:19:33.501Z,100167.27
2019-05-18T16:22:05.414Z,100170.76
2019-05-18T16:24:37.381Z,100177.57
2019-05-18T16:27:09.269Z,100184.67
2019-05-18T16:29:41.046Z,100183.36
2019-05-18T16:32:12.906Z,100177.67
2019-05-18T16:34:44.869Z,100183.33
2019-05-18T16:37:16.763Z,100169.16
2019-05-18T16:39:48.644Z,100170.42
2019-05-18T16:42:20.510Z,100180.17
2019-05-18T16:44:52.463Z,100174.81
2019-05-18T16:47:24.272Z,100173.06
2019-05-18T16:49:56.070Z,100170.25
2019-05-18T16:52:27.867Z,100168.47
2019-05-18T16:54:59.723Z,100166.30
2019-05-18T16:57:31.584Z,100161.47
2019-05-18T17:00:04.610Z,100166.05
2019-05-18T17:02:37.491Z,100166.27
2019-05-18T17:05:09.629Z,100167.05
2019-05-18T17:07:41.493Z,100169.37
2019-05-18T17:10:13.566Z,100175.20
2019-05-18T17:12:45.368Z,100178.63
2019-05-18T17:15:17.289Z,100173.45
2019-05-18T17:17:49.247Z,100180.30
2019-05-18T17:20:21.640Z,100180.94
2019-05-18T17:22:53.562Z,100183.83
2019-05-18T17:25:25.425Z,100184.13
2019-05-18T17:27:57.202Z,100183.22
2019-05-18T17:30:28.990Z,100186.47
2019-05-18T17:33:00.851Z,100182.83
2019-05-18T17:35:32.726Z,100190.09
2019-05-18T17:38:04.538Z,100187.27
2019-05-18T17:40:37.418Z,100189.37
2019-05-18T17:43:10.015Z,100194.28
2019-05-18T17:45:41.918Z,100195.47
2019-05-18T17:48:13.836Z,100195.02
2019-05-18T17:50:45.862Z,100199.20
2019-05-18T17:53:17.729Z,100198.81
2019-05-18T17:55:49.603Z,100200.13
2019-05-18T17:58:21.486Z,100200.19
2019-05-18T18:00:53.285Z,100213.63
2019-05-18T18:03:25.152Z,100210.41
2019-05-18T18:05:57.022Z,100213.92
2019-05-18T18:08:28.904Z,100219.14
2019-05-18T18:11:00.779Z,100211.14
2019-05-18T18:13:32.744Z,100213.06
2019-05-18T18:16:04.607Z,100216.93
2019-05-18T18:18:36.586Z,100221.20
2019-05-18T18:21:08.597Z,100224.48
2019-05-18T18:23:40.487Z,100221.73
2019-05-18T18:26:12.421Z,100224.69
2019-05-18T18:28:44.276Z,100221.41
2019-05-18T18:31:16.147Z,100222.02
2019-05-18T18:33:48.008Z,100214.94
2019-05-18T18:36:19.813Z,100203.64
2019-05-18T18:38:51.679Z,100199.04
2019-05-18T18:41:23.538Z,100188.47
2019-05-18T18:43:55.409Z,100188.41
2019-05-18T18:46:27.279Z,100189.63
2019-05-18T18:48:59.136Z,100184.62
2019-05-18T18:51:31.019Z,100177.91
2019-05-18T18:54:02.866Z,100176.92
2019-05-18T18:56:34.892Z,100177.77
2019-05-18T18:59:06.771Z,100177.89
2019-05-18T19:01:38.653Z,100177.93
2019-05-18T19:04:10.531Z,100180.72
2019-05-18T19:06:42.717Z,100178.52
2019-05-18T19:09:14.673Z,100182.20
2019-05-18T19:11:46.549Z,100183.55
2019-05-18T19:14:18.375Z,100187.44
2019-05-18T19:16:50.330Z,100191.01
2019-05-18T19:19:22.128Z,100191.27
2019-05-18T19:21:54.005Z,100199.24
2019-05-18T19:24:25.882Z,100203.25
2019-05-18T19:26:57.769Z,100218.10
2019-05-18T19:29:29.629Z,100217.31
2019-05-18T19:32:01.510Z,100220.75
2019-05-18T19:34:33.571Z,100224.44
2019-05-18T19:37:05.442Z,100220.42
2019-05-18T19:39:38.636Z,100223.77
2019-05-18T19:42:10.526Z,100227.61
2019-05-18T19:44:42.418Z,100228.55
2019-05-18T19:47:14.306Z,100228.72
2019-05-18T19:49:46.194Z,100230.32
2019-05-18T19:52:17.982Z,100228.39
2019-05-18T19:54:49.846Z,100230.92
2019-05-18T19:57:21.732Z,100221.80
2019-05-18T19:59:53.602Z,100224.64
2019-05-18T20:02:25.530Z,100227.47
2019-05-18T20:05:07.188Z,100233.25
2019-05-18T20:07:30.982Z,100226.63
2019-05-18T20:10:02.848Z,100239.11
2019-05-18T20:12:35.019Z,100235.91
2019-05-18T20:15:09.583Z,100237.69
2019-05-18T20:17:40.672Z,100237.73
2019-05-18T20:20:14.690Z,100237.25
2019-05-18T20:22:46.561Z,100240.66
2019-05-18T20:25:18.475Z,100245.08
2019-05-18T20:27:50.326Z,100238.45
2019-05-18T20:30:22.291Z,100232.91
2019-05-18T20:32:54.154Z,100232.06
2019-05-18T20:35:26.068Z,100226.64
2019-05-18T20:37:57.844Z,100218.34
2019-05-18T20:40:29.702Z,100224.87
2019-05-18T20:43:01.748Z,100226.58
2019-05-18T20:45:33.832Z,100222.17
2019-05-18T20:48:05.847Z,100219.11
2019-05-18T20:50:37.669Z,100214.40
2019-05-18T20:53:09.499Z,100211.83
2019-05-18T20:55:41.458Z,100212.02
2019-05-18T20:58:13.328Z,100214.06
2019-05-18T21:00:45.141Z,100213.56
2019-05-18T21:03:18.026Z,100213.37
2019-05-18T21:05:50.067Z,100214.73
2019-05-18T21:08:21.919Z,100211.00
2019-05-18T21:10:53.794Z,100207.78
2019-05-18T21:13:25.651Z,100216.80
2019-05-18T21:15:57.518Z,100221.18
2019-05-18T21:18:29.314Z,100216.23
2019-05-18T21:21:01.130Z,100214.70
2019-05-18T21:23:32.983Z,100213.00
2019-05-18T21:26:04.920Z,100211.48
2019-05-18T21:28:36.717Z,100208.94
2019-05-18T21:31:08.622Z,100219.61
2019-05-18T21:33:40.427Z,100221.97
2019-05-18T21:36:13.294Z,100230.14
2019-05-18T21:38:45.175Z,100231.45
2019-05-18T21:41:16.978Z,100231.11
2019-05-18T21:43:48.795Z,100232.44
2019-05-18T21:46:20.617Z,100227.86
2019-05-18T21:48:52.494Z,100231.09
2019-05-18T21:51:24.363Z,100230.25
2019-05-18T21:53:56.157Z,100224.83
2019-05-18T21:56:27.938Z,100222.27
2019-05-18T21:59:11.046Z,100216.33
2019-05-18T22:01:33.445Z,100214.47
2019-05-18T22:04:06.611Z,100214.16
2019-05-18T22:06:38.622Z,100215.18
2019-05-18T22:09:10.606Z,100222.12
2019-05-18T22:11:42.523Z,100223.49
2019-05-18T22:14:14.372Z,100221.55
2019-05-18T22:16:46.283Z,100229.63
2019-05-18T22:19:18.152Z,100231.15
2019-05-18T22:21:49.948Z,100228.70
2019-05-18T22:24:21.835Z,100225.70
2019-05-18T22:26:53.721Z,100224.47
2019-05-18T22:29:26.591Z,100213.94
2019-05-18T22:31:58.388Z,100220.20
2019-05-18T22:34:30.265Z,100216.63
2019-05-18T22:37:02.275Z,100212.58
2019-05-18T22:39:34.160Z,100212.72
2019-05-18T22:42:06.025Z,100210.53
2019-05-18T22:44:37.895Z,100205.27
2019-05-18T22:47:09.721Z,100201.38
2019-05-18T22:49:41.595Z,100200.84
2019-05-18T22:52:13.476Z,100203.37
2019-05-18T22:54:45.436Z,100197.12
2019-05-18T22:57:17.306Z,100199.78
2019-05-18T22:59:49.206Z,100198.89
2019-05-18T23:02:21.183Z,100200.28
2019-05-18T23:04:53.149Z,100198.03
2019-05-18T23:07:25.127Z,100190.39
2019-05-18T23:09:56.988Z,100194.66
2019-05-18T23:12:28.879Z,100193.99
2019-05-18T23:15:01.140Z,100193.77
2019-05-18T23:17:33.026Z,100196.97
2019-05-18T23:20:05.412Z,100185.63
2019-05-18T23:22:37.228Z,100183.09
2019-05-18T23:25:09.352Z,100178.16
2019-05-18T23:27:41.324Z,100174.24
2019-05-18T23:30:14.023Z,100170.50
2019-05-18T23:32:45.830Z,100166.55
2019-05-18T23:35:18.714Z,100173.09
2019-05-18T23:37:50.595Z,100169.86
2019-05-18T23:40:22.589Z,100165.77
2019-05-18T23:42:54.386Z,100165.22
2019-05-18T23:45:26.301Z,100167.20
2019-05-18T23:47:59.592Z,100166.13
2019-05-18T23:50:31.566Z,100166.27
2019-05-18T23:53:03.426Z,100167.75
2019-05-18T23:55:35.470Z,100160.28
2019-05-18T23:58:07.357Z,100164.70
